Lady Nur — 3FFE2 — position and weather

sailwx.info

Track history (hours):
 
Tides and Currents Weather Stations Pressure Air Temp Water Temp Dewpoint Dewpoint Depression Visibility Wind Speed Wind Dir Waves Ship Positions

Lady Nur

Last reported at 2015-Aug-03 18:29 UTC. Time now 2015-Aug-04 01:27 UTC.
Position N 35°43' W 000°38'.

Length 82 m; draft 5.5 m.

Type: Cargo ship. MMSI: 373237000.

Date/timePositionNaut miles runAvg speedWind from/ knotsBaromVisibWave heightAir tempDewpointWater temp
2015-Aug-03 18:29N 35°43' W 000°38'0 0.0
2015-Aug-03 17:28N 35°43' W 000°38'0 0.0
2015-Aug-03 16:29N 35°43' W 000°38'0 0.0
2015-Aug-03 12:28N 35°43' W 000°38'0 0.0
2015-Aug-03 06:28N 35°43' W 000°38'0 0.0
2015-Aug-03 04:28N 35°43' W 000°38'0 0.0
2015-Aug-03 03:11N 35°43' W 000°38'0 0.0
2015-Aug-03 02:11N 35°43' W 000°38'0 0.0
2015-Aug-03 00:28N 35°43' W 000°38'0 0.0
2015-Aug-02 23:10N 35°43' W 000°38'0 0.0
2015-Aug-02 22:04N 35°43' W 000°38'  
2015-Jul-30 15:23N 39°26' W 000°19'1 1.0
2015-Jul-30 14:33N 39°27' W 000°20'0 0.0
2015-Jul-30 13:30N 39°27' W 000°20'0 0.0
2015-Jul-30 12:33N 39°27' W 000°20'0 0.0
2015-Jul-30 11:33N 39°27' W 000°20'0 0.0
2015-Jul-30 10:33N 39°27' W 000°20'0 0.0
2015-Jul-30 09:33N 39°27' W 000°20'0 0.0
2015-Jul-30 08:33N 39°27' W 000°20'0 0.0
2015-Jul-30 07:33N 39°27' W 000°20'0 0.0
2015-Jul-30 06:32N 39°27' W 000°20'0 0.0
2015-Jul-30 05:32N 39°27' W 000°20'0 0.0
2015-Jul-30 04:32N 39°27' W 000°20'0 0.0
2015-Jul-30 03:32N 39°27' W 000°20'0 0.0
2015-Jul-30 02:32N 39°27' W 000°20'0 0.0
2015-Jul-30 01:32N 39°27' W 000°20'0 0.0
2015-Jul-30 00:32N 39°27' W 000°20'0 0.0
2015-Jul-29 23:26N 39°27' W 000°20'0 0.3
2015-Jul-29 22:29N 39°27' W 000°19'0 0.0
2015-Jul-29 21:32N 39°27' W 000°19'0 0.0
2015-Jul-29 20:32N 39°27' W 000°19'0 0.0
2015-Jul-29 19:32N 39°27' W 000°19'0 0.0
2015-Jul-29 18:32N 39°27' W 000°19'0 0.0
2015-Jul-29 17:32N 39°27' W 000°19'0 0.0
2015-Jul-29 16:32N 39°27' W 000°19'0 0.0
2015-Jul-29 15:32N 39°27' W 000°19'0 0.0
2015-Jul-29 14:26N 39°27' W 000°19'0 0.0
2015-Jul-29 13:32N 39°27' W 000°19'0 0.0
2015-Jul-29 12:32N 39°27' W 000°19'0 0.0
2015-Jul-29 11:29N 39°27' W 000°19'0 0.0
2015-Jul-29 10:32N 39°27' W 000°19'0 0.0
2015-Jul-29 09:32N 39°27' W 000°19'0 0.0
2015-Jul-29 08:32N 39°27' W 000°19'0 0.0
2015-Jul-29 05:32N 39°27' W 000°19'0 0.0
2015-Jul-29 04:32N 39°27' W 000°19'0 0.0
2015-Jul-29 03:32N 39°27' W 000°19'0 0.0
2015-Jul-29 02:32N 39°27' W 000°19'0 0.0
2015-Jul-29 01:32N 39°27' W 000°19'0 0.0
2015-Jul-29 00:32N 39°27' W 000°19'0 0.0
2015-Jul-28 23:32N 39°27' W 000°19'0 0.0
2015-Jul-28 22:29N 39°27' W 000°19'0 0.0
2015-Jul-28 21:26N 39°27' W 000°19'0 0.1
2015-Jul-28 20:32N 39°27' W 000°19'0 0.0
2015-Jul-28 19:29N 39°27' W 000°19'0 0.0
2015-Jul-28 18:28N 39°27' W 000°19'0 0.0
2015-Jul-28 17:28N 39°27' W 000°19'0 0.0
2015-Jul-28 16:31N 39°27' W 000°19'0 0.0
2015-Jul-28 15:31N 39°27' W 000°19'0 0.0
2015-Jul-28 14:31N 39°27' W 000°19'0 0.0
2015-Jul-28 13:31N 39°27' W 000°19'0 0.0
2015-Jul-28 12:31N 39°27' W 000°19'0 0.0
2015-Jul-28 11:25N 39°27' W 000°19'0 0.0
2015-Jul-28 10:31N 39°27' W 000°19'0 0.0
2015-Jul-28 09:33N 39°27' W 000°19'4 0.1
2015-Jul-26 07:28N 39°24' W 000°17'99 5.4
2015-Jul-25 13:22N 37°45' W 000°21'5 6.7
2015-Jul-25 12:33N 37°41' W 000°25'7 6.8
2015-Jul-25 11:34N 37°35' W 000°29'7 7.4
2015-Jul-25 10:33N 37°30' W 000°36'8 7.7
2015-Jul-25 09:33N 37°24' W 000°43'8 7.7
2015-Jul-25 08:33N 37°19' W 000°50'9 7.5
2015-Jul-25 07:24N 37°14' W 000°59'6 6.8
2015-Jul-25 06:31N 37°09' W 001°04'7 6.8
2015-Jul-25 05:30N 37°05' W 001°10'10 6.7
2015-Jul-25 04:04N 36°58' W 001°19'4 6.5
2015-Jul-25 03:29N 36°56' W 001°23'6 6.6
2015-Jul-25 02:33N 36°52' W 001°28'7 6.7
2015-Jul-25 01:28N 36°47' W 001°35'8 6.7
2015-Jul-25 00:16N 36°41' W 001°42'7 6.5
2015-Jul-24 23:13N 36°36' W 001°49'5 6.5
2015-Jul-24 22:26N 36°33' W 001°53'  
Track history (hours):
 
Tides and Currents Weather Stations Pressure Air Temp Water Temp Dewpoint Dewpoint Depression Visibility Wind Speed Wind Dir Waves Ship Positions

Lady Nur

Last reported at 2015-Aug-03 18:29 UTC. Time now 2015-Aug-04 01:27 UTC.
Position N 35°43' W 000°38'.

Length 82 m; draft 5.5 m.

Type: Cargo ship. MMSI: 373237000.

Date/timePositionNaut miles runAvg speedWind from/ knotsBaromVisibWave heightAir tempDewpointWater temp
2015-Aug-03 18:29N 35°43' W 000°38'0 0.0
2015-Aug-03 17:28N 35°43' W 000°38'0 0.0
2015-Aug-03 16:29N 35°43' W 000°38'0 0.0
2015-Aug-03 12:28N 35°43' W 000°38'0 0.0
2015-Aug-03 06:28N 35°43' W 000°38'0 0.0
2015-Aug-03 04:28N 35°43' W 000°38'0 0.0
2015-Aug-03 03:11N 35°43' W 000°38'0 0.0
2015-Aug-03 02:11N 35°43' W 000°38'0 0.0
2015-Aug-03 00:28N 35°43' W 000°38'0 0.0
2015-Aug-02 23:10N 35°43' W 000°38'0 0.0
2015-Aug-02 22:04N 35°43' W 000°38'  
2015-Jul-30 15:23N 39°26' W 000°19'1 1.0
2015-Jul-30 14:33N 39°27' W 000°20'0 0.0
2015-Jul-30 13:30N 39°27' W 000°20'0 0.0
2015-Jul-30 12:33N 39°27' W 000°20'0 0.0
2015-Jul-30 11:33N 39°27' W 000°20'0 0.0
2015-Jul-30 10:33N 39°27' W 000°20'0 0.0
2015-Jul-30 09:33N 39°27' W 000°20'0 0.0
2015-Jul-30 08:33N 39°27' W 000°20'0 0.0
2015-Jul-30 07:33N 39°27' W 000°20'0 0.0
2015-Jul-30 06:32N 39°27' W 000°20'0 0.0
2015-Jul-30 05:32N 39°27' W 000°20'0 0.0
2015-Jul-30 04:32N 39°27' W 000°20'0 0.0
2015-Jul-30 03:32N 39°27' W 000°20'0 0.0
2015-Jul-30 02:32N 39°27' W 000°20'0 0.0
2015-Jul-30 01:32N 39°27' W 000°20'0 0.0
2015-Jul-30 00:32N 39°27' W 000°20'0 0.0
2015-Jul-29 23:26N 39°27' W 000°20'0 0.3
2015-Jul-29 22:29N 39°27' W 000°19'0 0.0
2015-Jul-29 21:32N 39°27' W 000°19'0 0.0
2015-Jul-29 20:32N 39°27' W 000°19'0 0.0
2015-Jul-29 19:32N 39°27' W 000°19'0 0.0
2015-Jul-29 18:32N 39°27' W 000°19'0 0.0
2015-Jul-29 17:32N 39°27' W 000°19'0 0.0
2015-Jul-29 16:32N 39°27' W 000°19'0 0.0
2015-Jul-29 15:32N 39°27' W 000°19'0 0.0
2015-Jul-29 14:26N 39°27' W 000°19'0 0.0
2015-Jul-29 13:32N 39°27' W 000°19'0 0.0
2015-Jul-29 12:32N 39°27' W 000°19'0 0.0
2015-Jul-29 11:29N 39°27' W 000°19'0 0.0
2015-Jul-29 10:32N 39°27' W 000°19'0 0.0
2015-Jul-29 09:32N 39°27' W 000°19'0 0.0
2015-Jul-29 08:32N 39°27' W 000°19'0 0.0
2015-Jul-29 05:32N 39°27' W 000°19'0 0.0
2015-Jul-29 04:32N 39°27' W 000°19'0 0.0
2015-Jul-29 03:32N 39°27' W 000°19'0 0.0
2015-Jul-29 02:32N 39°27' W 000°19'0 0.0
2015-Jul-29 01:32N 39°27' W 000°19'0 0.0
2015-Jul-29 00:32N 39°27' W 000°19'0 0.0
2015-Jul-28 23:32N 39°27' W 000°19'0 0.0
2015-Jul-28 22:29N 39°27' W 000°19'0 0.0
2015-Jul-28 21:26N 39°27' W 000°19'0 0.1
2015-Jul-28 20:32N 39°27' W 000°19'0 0.0
2015-Jul-28 19:29N 39°27' W 000°19'0 0.0
2015-Jul-28 18:28N 39°27' W 000°19'0 0.0
2015-Jul-28 17:28N 39°27' W 000°19'0 0.0
2015-Jul-28 16:31N 39°27' W 000°19'0 0.0
2015-Jul-28 15:31N 39°27' W 000°19'0 0.0
2015-Jul-28 14:31N 39°27' W 000°19'0 0.0
2015-Jul-28 13:31N 39°27' W 000°19'0 0.0
2015-Jul-28 12:31N 39°27' W 000°19'0 0.0
2015-Jul-28 11:25N 39°27' W 000°19'0 0.0
2015-Jul-28 10:31N 39°27' W 000°19'0 0.0
2015-Jul-28 09:33N 39°27' W 000°19'4 0.1
2015-Jul-26 07:28N 39°24' W 000°17'99 5.4
2015-Jul-25 13:22N 37°45' W 000°21'5 6.7
2015-Jul-25 12:33N 37°41' W 000°25'7 6.8
2015-Jul-25 11:34N 37°35' W 000°29'7 7.4
2015-Jul-25 10:33N 37°30' W 000°36'8 7.7
2015-Jul-25 09:33N 37°24' W 000°43'8 7.7
2015-Jul-25 08:33N 37°19' W 000°50'9 7.5
2015-Jul-25 07:24N 37°14' W 000°59'6 6.8
2015-Jul-25 06:31N 37°09' W 001°04'7 6.8
2015-Jul-25 05:30N 37°05' W 001°10'10 6.7
2015-Jul-25 04:04N 36°58' W 001°19'4 6.5
2015-Jul-25 03:29N 36°56' W 001°23'6 6.6
2015-Jul-25 02:33N 36°52' W 001°28'7 6.7
2015-Jul-25 01:28N 36°47' W 001°35'8 6.7
2015-Jul-25 00:16N 36°41' W 001°42'7 6.5
2015-Jul-24 23:13N 36°36' W 001°49'5 6.5
2015-Jul-24 22:26N 36°33' W 001°53'  

Dump ship's entire track history